sensor_id;sensor_type;location;lat;lon;timestamp;temperature;humidity
1568;DHT22;777;47.156;8.326;2022-09-12T00:01:18;12.50;99.90
1568;DHT22;777;47.156;8.326;2022-09-12T00:03:45;12.50;99.90
1568;DHT22;777;47.156;8.326;2022-09-12T00:06:17;12.40;99.90
1568;DHT22;777;47.156;8.326;2022-09-12T00:08:45;12.30;99.90
1568;DHT22;777;47.156;8.326;2022-09-12T00:11:12;12.40;99.90
1568;DHT22;777;47.156;8.326;2022-09-12T00:13:41;12.40;99.90
1568;DHT22;777;47.156;8.326;2022-09-12T00:16:16;12.30;99.90
1568;DHT22;777;47.156;8.326;2022-09-12T00:18:45;12.40;99.90
1568;DHT22;777;47.156;8.326;2022-09-12T00:21:13;12.20;99.90
1568;DHT22;777;47.156;8.326;2022-09-12T00:23:40;12.20;99.90
1568;DHT22;777;47.156;8.326;2022-09-12T00:26:07;12.00;99.90
1568;DHT22;777;47.156;8.326;2022-09-12T00:28:36;12.10;99.90
1568;DHT22;777;47.156;8.326;2022-09-12T00:31:06;12.00;99.90
1568;DHT22;777;47.156;8.326;2022-09-12T00:33:34;12.10;99.90
1568;DHT22;777;47.156;8.326;2022-09-12T00:36:04;12.00;99.90
1568;DHT22;777;47.156;8.326;2022-09-12T00:38:32;12.10;99.90
1568;DHT22;777;47.156;8.326;2022-09-12T00:41:00;12.10;99.90
1568;DHT22;777;47.156;8.326;2022-09-12T00:43:36;12.10;99.90
1568;DHT22;777;47.156;8.326;2022-09-12T00:46:12;12.20;99.90
1568;DHT22;777;47.156;8.326;2022-09-12T00:48:45;12.10;99.90
1568;DHT22;777;47.156;8.326;2022-09-12T00:51:14;12.00;99.90
1568;DHT22;777;47.156;8.326;2022-09-12T00:53:43;12.00;99.90
1568;DHT22;777;47.156;8.326;2022-09-12T00:56:13;11.90;99.90
1568;DHT22;777;47.156;8.326;2022-09-12T00:58:46;11.90;99.90
1568;DHT22;777;47.156;8.326;2022-09-12T01:01:15;11.80;99.90
1568;DHT22;777;47.156;8.326;2022-09-12T01:03:43;11.80;99.90
1568;DHT22;777;47.156;8.326;2022-09-12T01:06:14;11.70;99.90
1568;DHT22;777;47.156;8.326;2022-09-12T01:08:43;11.70;99.90
1568;DHT22;777;47.156;8.326;2022-09-12T01:11:12;11.60;99.90
1568;DHT22;777;47.156;8.326;2022-09-12T01:13:39;11.60;99.90
1568;DHT22;777;47.156;8.326;2022-09-12T01:16:07;11.60;99.90
1568;DHT22;777;47.156;8.326;2022-09-12T01:18:43;11.70;99.90
1568;DHT22;777;47.156;8.326;2022-09-12T01:21:19;11.60;99.90
1568;DHT22;777;47.156;8.326;2022-09-12T01:33:34;11.60;99.90
1568;DHT22;777;47.156;8.326;2022-09-12T01:36:17;11.60;99.90
1568;DHT22;777;47.156;8.326;2022-09-12T01:38:47;11.50;99.90
1568;DHT22;777;47.156;8.326;2022-09-12T01:41:21;11.40;99.90
1568;DHT22;777;47.156;8.326;2022-09-12T01:43:53;11.40;99.90
1568;DHT22;777;47.156;8.326;2022-09-12T01:46:30;11.50;99.90
1568;DHT22;777;47.156;8.326;2022-09-12T01:49:01;11.50;99.90
1568;DHT22;777;47.156;8.326;2022-09-12T01:51:33;11.50;99.90
1568;DHT22;777;47.156;8.326;2022-09-12T01:54:06;11.60;99.90
1568;DHT22;777;47.156;8.326;2022-09-12T01:56:37;11.70;99.90
1568;DHT22;777;47.156;8.326;2022-09-12T01:59:11;11.60;99.90
1568;DHT22;777;47.156;8.326;2022-09-12T02:01:45;11.70;99.90
1568;DHT22;777;47.156;8.326;2022-09-12T02:04:17;11.60;99.90
1568;DHT22;777;47.156;8.326;2022-09-12T02:06:49;11.50;99.90
1568;DHT22;777;47.156;8.326;2022-09-12T02:09:20;11.20;99.90
1568;DHT22;777;47.156;8.326;2022-09-12T02:11:51;11.10;99.90
1568;DHT22;777;47.156;8.326;2022-09-12T02:14:22;11.10;99.90
1568;DHT22;777;47.156;8.326;2022-09-12T02:16:54;11.20;99.90
1568;DHT22;777;47.156;8.326;2022-09-12T02:19:24;11.20;99.90
1568;DHT22;777;47.156;8.326;2022-09-12T02:21:54;11.20;99.90
1568;DHT22;777;47.156;8.326;2022-09-12T02:24:24;11.10;99.90
1568;DHT22;777;47.156;8.326;2022-09-12T02:26:54;11.20;99.90
1568;DHT22;777;47.156;8.326;2022-09-12T02:29:22;11.10;99.90
1568;DHT22;777;47.156;8.326;2022-09-12T02:31:54;11.20;99.90
1568;DHT22;777;47.156;8.326;2022-09-12T02:34:31;11.10;99.90
1568;DHT22;777;47.156;8.326;2022-09-12T02:37:05;11.10;99.90
1568;DHT22;777;47.156;8.326;2022-09-12T02:39:34;11.00;99.90
1568;DHT22;777;47.156;8.326;2022-09-12T02:42:02;10.90;99.90
1568;DHT22;777;47.156;8.326;2022-09-12T02:44:30;11.00;99.90
1568;DHT22;777;47.156;8.326;2022-09-12T02:47:03;10.90;99.90
1568;DHT22;777;47.156;8.326;2022-09-12T02:49:31;10.80;99.90
1568;DHT22;777;47.156;8.326;2022-09-12T02:51:59;10.80;99.90
1568;DHT22;777;47.156;8.326;2022-09-12T02:54:27;10.80;99.90
1568;DHT22;777;47.156;8.326;2022-09-12T02:56:54;10.80;99.90
1568;DHT22;777;47.156;8.326;2022-09-12T02:59:22;10.90;99.90
1568;DHT22;777;47.156;8.326;2022-09-12T03:02:06;10.90;99.90
1568;DHT22;777;47.156;8.326;2022-09-12T03:04:50;10.70;99.90
1568;DHT22;777;47.156;8.326;2022-09-12T03:07:29;10.70;99.90
1568;DHT22;777;47.156;8.326;2022-09-12T03:10:06;10.60;99.90
1568;DHT22;777;47.156;8.326;2022-09-12T03:12:45;10.60;99.90
1568;DHT22;777;47.156;8.326;2022-09-12T03:15:25;10.70;99.90
1568;DHT22;777;47.156;8.326;2022-09-12T03:18:26;10.70;99.90
1568;DHT22;777;47.156;8.326;2022-09-12T03:21:01;10.70;99.90
1568;DHT22;777;47.156;8.326;2022-09-12T03:23:31;10.80;99.90
1568;DHT22;777;47.156;8.326;2022-09-12T03:26:05;10.70;99.90
1568;DHT22;777;47.156;8.326;2022-09-12T03:28:36;10.50;99.90
1568;DHT22;777;47.156;8.326;2022-09-12T03:31:11;10.40;99.90
1568;DHT22;777;47.156;8.326;2022-09-12T03:33:41;10.40;99.90
1568;DHT22;777;47.156;8.326;2022-09-12T03:36:14;10.60;99.90
1568;DHT22;777;47.156;8.326;2022-09-12T03:38:41;10.50;99.90
1568;DHT22;777;47.156;8.326;2022-09-12T03:41:08;10.30;99.90
1568;DHT22;777;47.156;8.326;2022-09-12T03:43:35;10.30;99.90
1568;DHT22;777;47.156;8.326;2022-09-12T03:46:02;10.20;99.90
1568;DHT22;777;47.156;8.326;2022-09-12T03:48:29;10.20;99.90
1568;DHT22;777;47.156;8.326;2022-09-12T03:51:00;10.30;99.90
1568;DHT22;777;47.156;8.326;2022-09-12T03:53:28;10.40;99.90
1568;DHT22;777;47.156;8.326;2022-09-12T03:55:56;10.40;99.90
1568;DHT22;777;47.156;8.326;2022-09-12T03:58:23;10.40;99.90
1568;DHT22;777;47.156;8.326;2022-09-12T04:00:51;10.40;99.90
1568;DHT22;777;47.156;8.326;2022-09-12T04:03:18;10.20;99.90
1568;DHT22;777;47.156;8.326;2022-09-12T04:05:45;10.30;99.90
1568;DHT22;777;47.156;8.326;2022-09-12T04:08:14;10.20;99.90
1568;DHT22;777;47.156;8.326;2022-09-12T04:10:41;10.10;99.90
1568;DHT22;777;47.156;8.326;2022-09-12T04:13:08;10.10;99.90
1568;DHT22;777;47.156;8.326;2022-09-12T04:15:35;10.20;99.90
1568;DHT22;777;47.156;8.326;2022-09-12T04:18:03;10.10;99.90
1568;DHT22;777;47.156;8.326;2022-09-12T04:20:30;10.10;99.90
1568;DHT22;777;47.156;8.326;2022-09-12T04:22:57;10.10;99.90
1568;DHT22;777;47.156;8.326;2022-09-12T04:25:25;10.10;99.90
1568;DHT22;777;47.156;8.326;2022-09-12T04:27:53;10.00;99.90
1568;DHT22;777;47.156;8.326;2022-09-12T04:30:20;10.00;99.90
1568;DHT22;777;47.156;8.326;2022-09-12T04:32:47;10.00;99.90
1568;DHT22;777;47.156;8.326;2022-09-12T04:35:14;10.00;99.90
1568;DHT22;777;47.156;8.326;2022-09-12T04:37:41;9.90;99.90
1568;DHT22;777;47.156;8.326;2022-09-12T04:40:09;9.90;99.90
1568;DHT22;777;47.156;8.326;2022-09-12T04:42:37;9.90;99.90
1568;DHT22;777;47.156;8.326;2022-09-12T04:45:05;10.00;99.90
1568;DHT22;777;47.156;8.326;2022-09-12T04:47:32;10.00;99.90
1568;DHT22;777;47.156;8.326;2022-09-12T04:50:01;10.00;99.90
1568;DHT22;777;47.156;8.326;2022-09-12T04:52:28;9.90;99.90
1568;DHT22;777;47.156;8.326;2022-09-12T04:54:55;10.00;99.90
1568;DHT22;777;47.156;8.326;2022-09-12T04:57:22;9.90;99.90
1568;DHT22;777;47.156;8.326;2022-09-12T04:59:51;9.80;99.90
1568;DHT22;777;47.156;8.326;2022-09-12T05:02:18;9.80;99.90
1568;DHT22;777;47.156;8.326;2022-09-12T05:04:46;9.80;99.90
1568;DHT22;777;47.156;8.326;2022-09-12T05:07:13;9.90;99.90
1568;DHT22;777;47.156;8.326;2022-09-12T05:09:40;9.80;99.90
1568;DHT22;777;47.156;8.326;2022-09-12T05:12:07;9.80;99.90
1568;DHT22;777;47.156;8.326;2022-09-12T05:14:34;9.80;99.90
1568;DHT22;777;47.156;8.326;2022-09-12T05:17:07;9.90;99.90
1568;DHT22;777;47.156;8.326;2022-09-12T05:19:34;9.90;99.90
1568;DHT22;777;47.156;8.326;2022-09-12T05:22:01;10.00;99.90
1568;DHT22;777;47.156;8.326;2022-09-12T05:24:29;10.00;99.90
1568;DHT22;777;47.156;8.326;2022-09-12T05:26:57;10.00;99.90
1568;DHT22;777;47.156;8.326;2022-09-12T05:29:24;10.10;99.90
1568;DHT22;777;47.156;8.326;2022-09-12T05:31:51;10.20;99.90
1568;DHT22;777;47.156;8.326;2022-09-12T05:34:20;10.30;99.90
1568;DHT22;777;47.156;8.326;2022-09-12T05:36:47;10.40;99.90
1568;DHT22;777;47.156;8.326;2022-09-12T05:39:14;10.50;99.90
1568;DHT22;777;47.156;8.326;2022-09-12T05:41:41;10.70;99.90
1568;DHT22;777;47.156;8.326;2022-09-12T05:44:11;10.80;99.90
1568;DHT22;777;47.156;8.326;2022-09-12T05:46:40;10.90;99.90
1568;DHT22;777;47.156;8.326;2022-09-12T05:49:09;11.10;99.90
1568;DHT22;777;47.156;8.326;2022-09-12T05:51:39;11.20;99.90
1568;DHT22;777;47.156;8.326;2022-09-12T05:54:09;11.40;99.90
1568;DHT22;777;47.156;8.326;2022-09-12T05:56:38;11.60;99.90
1568;DHT22;777;47.156;8.326;2022-09-12T05:59:09;11.90;99.90
1568;DHT22;777;47.156;8.326;2022-09-12T06:01:37;12.10;99.90
1568;DHT22;777;47.156;8.326;2022-09-12T06:04:06;12.30;99.90
1568;DHT22;777;47.156;8.326;2022-09-12T06:06:37;12.50;99.90
1568;DHT22;777;47.156;8.326;2022-09-12T06:09:06;12.80;99.90
1568;DHT22;777;47.156;8.326;2022-09-12T06:11:35;13.10;99.90
1568;DHT22;777;47.156;8.326;2022-09-12T06:14:04;13.60;99.90
1568;DHT22;777;47.156;8.326;2022-09-12T06:16:33;14.30;99.90
1568;DHT22;777;47.156;8.326;2022-09-12T06:19:03;15.30;99.90
1568;DHT22;777;47.156;8.326;2022-09-12T06:21:31;16.50;99.90
1568;DHT22;777;47.156;8.326;2022-09-12T06:24:01;17.70;99.90
1568;DHT22;777;47.156;8.326;2022-09-12T06:26:28;18.70;99.90
1568;DHT22;777;47.156;8.326;2022-09-12T06:28:57;19.60;99.90
1568;DHT22;777;47.156;8.326;2022-09-12T06:31:26;20.10;99.90
1568;DHT22;777;47.156;8.326;2022-09-12T06:33:55;20.20;99.90
1568;DHT22;777;47.156;8.326;2022-09-12T06:36:24;20.50;99.90
1568;DHT22;777;47.156;8.326;2022-09-12T06:38:56;21.70;99.90
1568;DHT22;777;47.156;8.326;2022-09-12T06:41:26;22.50;99.90
1568;DHT22;777;47.156;8.326;2022-09-12T06:43:53;23.10;99.90
1568;DHT22;777;47.156;8.326;2022-09-12T06:46:20;24.00;99.90
1568;DHT22;777;47.156;8.326;2022-09-12T06:48:47;24.80;99.90
1568;DHT22;777;47.156;8.326;2022-09-12T06:51:16;25.30;99.90
1568;DHT22;777;47.156;8.326;2022-09-12T06:53:45;25.70;99.90
1568;DHT22;777;47.156;8.326;2022-09-12T06:56:15;26.00;99.90
1568;DHT22;777;47.156;8.326;2022-09-12T06:58:45;25.90;99.90
1568;DHT22;777;47.156;8.326;2022-09-12T07:01:15;25.70;99.90
1568;DHT22;777;47.156;8.326;2022-09-12T07:03:45;25.40;99.90
1568;DHT22;777;47.156;8.326;2022-09-12T07:06:14;25.70;99.90
1568;DHT22;777;47.156;8.326;2022-09-12T07:08:41;25.50;99.90
1568;DHT22;777;47.156;8.326;2022-09-12T07:11:10;26.20;99.90
1568;DHT22;777;47.156;8.326;2022-09-12T07:13:37;26.60;99.90
1568;DHT22;777;47.156;8.326;2022-09-12T07:16:07;25.40;99.90
1568;DHT22;777;47.156;8.326;2022-09-12T07:18:35;26.00;99.90
1568;DHT22;777;47.156;8.326;2022-09-12T07:21:04;25.80;99.90
1568;DHT22;777;47.156;8.326;2022-09-12T07:23:31;25.70;99.90
1568;DHT22;777;47.156;8.326;2022-09-12T07:25:59;26.60;99.90
1568;DHT22;777;47.156;8.326;2022-09-12T07:28:29;25.60;99.90
1568;DHT22;777;47.156;8.326;2022-09-12T07:30:56;25.70;99.90
1568;DHT22;777;47.156;8.326;2022-09-12T07:33:27;25.30;99.90
1568;DHT22;777;47.156;8.326;2022-09-12T07:35:54;24.20;99.90
1568;DHT22;777;47.156;8.326;2022-09-12T07:38:21;22.90;99.90
1568;DHT22;777;47.156;8.326;2022-09-12T07:40:48;22.30;99.90
1568;DHT22;777;47.156;8.326;2022-09-12T07:43:15;21.70;99.90
1568;DHT22;777;47.156;8.326;2022-09-12T07:45:42;21.60;99.90
1568;DHT22;777;47.156;8.326;2022-09-12T07:48:09;21.20;99.90
1568;DHT22;777;47.156;8.326;2022-09-12T07:50:37;20.90;99.90
1568;DHT22;777;47.156;8.326;2022-09-12T07:53:05;20.60;99.90
1568;DHT22;777;47.156;8.326;2022-09-12T07:55:32;20.30;99.90
1568;DHT22;777;47.156;8.326;2022-09-12T07:57:59;20.10;99.90
1568;DHT22;777;47.156;8.326;2022-09-12T08:00:26;19.90;99.90
1568;DHT22;777;47.156;8.326;2022-09-12T08:03:00;20.00;99.90
1568;DHT22;777;47.156;8.326;2022-09-12T08:05:29;20.20;99.90
1568;DHT22;777;47.156;8.326;2022-09-12T08:07:57;20.20;99.90
1568;DHT22;777;47.156;8.326;2022-09-12T08:10:24;20.90;99.90
1568;DHT22;777;47.156;8.326;2022-09-12T08:12:51;21.30;99.90
1568;DHT22;777;47.156;8.326;2022-09-12T08:15:18;21.40;99.90
1568;DHT22;777;47.156;8.326;2022-09-12T08:17:45;21.80;99.90
1568;DHT22;777;47.156;8.326;2022-09-12T08:20:12;22.00;99.90
1568;DHT22;777;47.156;8.326;2022-09-12T08:22:39;22.80;99.90
1568;DHT22;777;47.156;8.326;2022-09-12T08:25:09;23.20;99.90
1568;DHT22;777;47.156;8.326;2022-09-12T08:27:36;23.90;99.90
1568;DHT22;777;47.156;8.326;2022-09-12T08:30:04;24.20;99.90
1568;DHT22;777;47.156;8.326;2022-09-12T08:32:33;24.90;99.90
1568;DHT22;777;47.156;8.326;2022-09-12T08:35:00;25.80;99.90
1568;DHT22;777;47.156;8.326;2022-09-12T08:37:29;25.50;99.90
1568;DHT22;777;47.156;8.326;2022-09-12T08:39:56;25.40;99.90
1568;DHT22;777;47.156;8.326;2022-09-12T08:42:32;25.90;99.90
1568;DHT22;777;47.156;8.326;2022-09-12T08:45:10;26.30;99.90
1568;DHT22;777;47.156;8.326;2022-09-12T08:47:42;27.10;99.90
1568;DHT22;777;47.156;8.326;2022-09-12T08:50:15;26.90;99.90
1568;DHT22;777;47.156;8.326;2022-09-12T08:52:49;27.00;99.90
1568;DHT22;777;47.156;8.326;2022-09-12T08:55:26;26.40;99.90
1568;DHT22;777;47.156;8.326;2022-09-12T08:57:56;26.30;99.90
1568;DHT22;777;47.156;8.326;2022-09-12T09:00:37;26.60;99.90
1568;DHT22;777;47.156;8.326;2022-09-12T09:06:03;26.60;99.90
1568;DHT22;777;47.156;8.326;2022-09-12T09:08:48;27.40;99.90
1568;DHT22;777;47.156;8.326;2022-09-12T09:11:36;26.60;99.90
1568;DHT22;777;47.156;8.326;2022-09-12T09:14:30;27.20;99.90
1568;DHT22;777;47.156;8.326;2022-09-12T09:17:20;29.10;99.90
1568;DHT22;777;47.156;8.326;2022-09-12T09:19:54;29.10;99.90
1568;DHT22;777;47.156;8.326;2022-09-12T09:22:31;28.40;99.90
1568;DHT22;777;47.156;8.326;2022-09-12T09:25:04;28.40;99.90
1568;DHT22;777;47.156;8.326;2022-09-12T09:27:35;28.60;99.90
1568;DHT22;777;47.156;8.326;2022-09-12T09:30:13;29.20;99.90
1568;DHT22;777;47.156;8.326;2022-09-12T09:32:41;29.10;99.90
1568;DHT22;777;47.156;8.326;2022-09-12T09:35:15;28.90;99.90
1568;DHT22;777;47.156;8.326;2022-09-12T09:37:53;29.00;99.90
1568;DHT22;777;47.156;8.326;2022-09-12T09:40:25;30.10;99.90
1568;DHT22;777;47.156;8.326;2022-09-12T09:42:58;30.10;99.90
1568;DHT22;777;47.156;8.326;2022-09-12T09:45:28;30.20;99.90
1568;DHT22;777;47.156;8.326;2022-09-12T09:48:00;30.40;99.90
1568;DHT22;777;47.156;8.326;2022-09-12T09:50:29;29.80;99.90
1568;DHT22;777;47.156;8.326;2022-09-12T09:53:00;30.20;99.90
1568;DHT22;777;47.156;8.326;2022-09-12T09:55:33;30.60;99.90
1568;DHT22;777;47.156;8.326;2022-09-12T09:58:09;31.30;99.90
1568;DHT22;777;47.156;8.326;2022-09-12T10:00:57;31.00;99.90
1568;DHT22;777;47.156;8.326;2022-09-12T10:03:28;31.20;99.90
1568;DHT22;777;47.156;8.326;2022-09-12T10:05:59;31.80;99.90
1568;DHT22;777;47.156;8.326;2022-09-12T10:08:31;31.50;99.10
1568;DHT22;777;47.156;8.326;2022-09-12T10:11:02;31.00;98.40
1568;DHT22;777;47.156;8.326;2022-09-12T10:13:35;30.10;99.60
1568;DHT22;777;47.156;8.326;2022-09-12T10:16:08;30.00;99.20
1568;DHT22;777;47.156;8.326;2022-09-12T10:18:43;30.30;99.60
1568;DHT22;777;47.156;8.326;2022-09-12T10:21:16;31.10;99.70
1568;DHT22;777;47.156;8.326;2022-09-12T10:23:45;32.20;98.80
1568;DHT22;777;47.156;8.326;2022-09-12T10:26:14;33.40;97.40
1568;DHT22;777;47.156;8.326;2022-09-12T10:28:46;33.20;94.70
1568;DHT22;777;47.156;8.326;2022-09-12T10:31:24;32.60;95.40
1568;DHT22;777;47.156;8.326;2022-09-12T10:33:54;31.50;96.40
1568;DHT22;777;47.156;8.326;2022-09-12T10:36:23;31.70;96.70
1568;DHT22;777;47.156;8.326;2022-09-12T10:38:54;31.60;96.20
1568;DHT22;777;47.156;8.326;2022-09-12T10:41:22;31.90;96.30
1568;DHT22;777;47.156;8.326;2022-09-12T10:43:50;31.90;95.80
1568;DHT22;777;47.156;8.326;2022-09-12T10:46:26;32.00;95.80
1568;DHT22;777;47.156;8.326;2022-09-12T10:51:55;30.30;97.40
1568;DHT22;777;47.156;8.326;2022-09-12T10:54:26;29.80;98.40
1568;DHT22;777;47.156;8.326;2022-09-12T10:57:07;29.10;99.00
1568;DHT22;777;47.156;8.326;2022-09-12T10:59:50;28.70;99.80
1568;DHT22;777;47.156;8.326;2022-09-12T11:02:29;29.60;99.10
1568;DHT22;777;47.156;8.326;2022-09-12T11:05:03;29.70;99.70
1568;DHT22;777;47.156;8.326;2022-09-12T11:07:41;30.50;99.20
1568;DHT22;777;47.156;8.326;2022-09-12T11:10:21;30.40;98.40
1568;DHT22;777;47.156;8.326;2022-09-12T11:12:56;30.20;97.80
1568;DHT22;777;47.156;8.326;2022-09-12T11:15:44;29.40;98.40
1568;DHT22;777;47.156;8.326;2022-09-12T11:18:23;29.50;98.50
1568;DHT22;777;47.156;8.326;2022-09-12T11:21:16;30.60;98.10
1568;DHT22;777;47.156;8.326;2022-09-12T11:24:14;31.50;97.00
1568;DHT22;777;47.156;8.326;2022-09-12T11:26:53;32.40;96.70
1568;DHT22;777;47.156;8.326;2022-09-12T11:29:37;32.30;95.70
1568;DHT22;777;47.156;8.326;2022-09-12T11:32:28;32.70;95.20
1568;DHT22;777;47.156;8.326;2022-09-12T11:35:06;31.40;96.00
1568;DHT22;777;47.156;8.326;2022-09-12T11:37:47;30.40;97.20
1568;DHT22;777;47.156;8.326;2022-09-12T11:40:27;30.20;96.80
1568;DHT22;777;47.156;8.326;2022-09-12T11:42:58;30.90;96.60
1568;DHT22;777;47.156;8.326;2022-09-12T11:45:29;31.40;97.50
1568;DHT22;777;47.156;8.326;2022-09-12T11:48:03;31.80;96.30
1568;DHT22;777;47.156;8.326;2022-09-12T11:50:33;33.10;95.40
1568;DHT22;777;47.156;8.326;2022-09-12T11:53:11;35.00;93.70
1568;DHT22;777;47.156;8.326;2022-09-12T11:55:49;36.50;92.20
1568;DHT22;777;47.156;8.326;2022-09-12T11:58:20;37.50;90.20
1568;DHT22;777;47.156;8.326;2022-09-12T12:00:50;38.20;87.30
1568;DHT22;777;47.156;8.326;2022-09-12T12:03:25;36.90;84.70
1568;DHT22;777;47.156;8.326;2022-09-12T12:06:00;35.60;86.70
1568;DHT22;777;47.156;8.326;2022-09-12T12:08:33;34.90;88.50
1568;DHT22;777;47.156;8.326;2022-09-12T12:11:04;35.00;87.50
1568;DHT22;777;47.156;8.326;2022-09-12T12:13:34;34.80;88.50
1568;DHT22;777;47.156;8.326;2022-09-12T12:16:06;35.50;89.00
1568;DHT22;777;47.156;8.326;2022-09-12T12:18:36;34.30;86.50
1568;DHT22;777;47.156;8.326;2022-09-12T12:21:20;32.70;90.00
1568;DHT22;777;47.156;8.326;2022-09-12T12:24:17;32.80;90.80
1568;DHT22;777;47.156;8.326;2022-09-12T12:26:58;33.80;89.90
1568;DHT22;777;47.156;8.326;2022-09-12T12:29:43;32.20;90.80
1568;DHT22;777;47.156;8.326;2022-09-12T12:32:24;33.00;91.80
1568;DHT22;777;47.156;8.326;2022-09-12T12:35:02;35.50;88.60
1568;DHT22;777;47.156;8.326;2022-09-12T12:37:55;35.40;89.30
1568;DHT22;777;47.156;8.326;2022-09-12T12:40:26;35.20;89.50
1568;DHT22;777;47.156;8.326;2022-09-12T12:46:10;36.30;85.50
1568;DHT22;777;47.156;8.326;2022-09-12T12:48:56;38.30;82.60
1568;DHT22;777;47.156;8.326;2022-09-12T12:51:55;37.00;83.50
1568;DHT22;777;47.156;8.326;2022-09-12T12:54:51;35.90;84.70
1568;DHT22;777;47.156;8.326;2022-09-12T12:57:47;36.10;84.30
1568;DHT22;777;47.156;8.326;2022-09-12T13:00:30;36.20;85.10
1568;DHT22;777;47.156;8.326;2022-09-12T13:03:03;36.20;82.70
1568;DHT22;777;47.156;8.326;2022-09-12T13:05:38;36.50;82.30
1568;DHT22;777;47.156;8.326;2022-09-12T13:08:08;36.10;82.00
1568;DHT22;777;47.156;8.326;2022-09-12T13:10:38;36.60;82.70
1568;DHT22;777;47.156;8.326;2022-09-12T13:13:22;38.60;79.80
1568;DHT22;777;47.156;8.326;2022-09-12T13:15:51;38.40;78.30
1568;DHT22;777;47.156;8.326;2022-09-12T13:18:23;40.10;76.60
1568;DHT22;777;47.156;8.326;2022-09-12T13:20:58;41.90;75.30
1568;DHT22;777;47.156;8.326;2022-09-12T13:23:28;42.40;70.90
1568;DHT22;777;47.156;8.326;2022-09-12T13:25:58;41.10;70.80
1568;DHT22;777;47.156;8.326;2022-09-12T13:28:26;40.30;71.60
1568;DHT22;777;47.156;8.326;2022-09-12T13:30:59;41.00;70.80
1568;DHT22;777;47.156;8.326;2022-09-12T13:33:35;40.60;70.20
1568;DHT22;777;47.156;8.326;2022-09-12T13:39:19;39.70;71.20
1568;DHT22;777;47.156;8.326;2022-09-12T13:44:43;39.20;70.00
1568;DHT22;777;47.156;8.326;2022-09-12T13:47:14;39.10;71.40
1568;DHT22;777;47.156;8.326;2022-09-12T13:49:42;40.90;70.80
1568;DHT22;777;47.156;8.326;2022-09-12T13:52:16;42.20;68.80
1568;DHT22;777;47.156;8.326;2022-09-12T13:54:47;42.00;66.00
1568;DHT22;777;47.156;8.326;2022-09-12T13:57:33;40.90;67.90
1568;DHT22;777;47.156;8.326;2022-09-12T14:00:05;40.40;67.30
1568;DHT22;777;47.156;8.326;2022-09-12T14:02:35;40.00;68.50
1568;DHT22;777;47.156;8.326;2022-09-12T14:05:11;40.10;69.10
1568;DHT22;777;47.156;8.326;2022-09-12T14:07:44;41.00;66.80
1568;DHT22;777;47.156;8.326;2022-09-12T14:10:21;42.50;66.60
1568;DHT22;777;47.156;8.326;2022-09-12T14:12:50;44.30;64.10
1568;DHT22;777;47.156;8.326;2022-09-12T14:15:20;43.70;61.90
1568;DHT22;777;47.156;8.326;2022-09-12T14:17:50;42.70;63.20
1568;DHT22;777;47.156;8.326;2022-09-12T14:20:18;43.60;63.30
1568;DHT22;777;47.156;8.326;2022-09-12T14:22:49;44.70;62.60
1568;DHT22;777;47.156;8.326;2022-09-12T14:25:17;46.00;61.60
1568;DHT22;777;47.156;8.326;2022-09-12T14:27:47;46.70;59.90
1568;DHT22;777;47.156;8.326;2022-09-12T14:30:23;47.00;58.80
1568;DHT22;777;47.156;8.326;2022-09-12T14:33:11;46.60;58.10
1568;DHT22;777;47.156;8.326;2022-09-12T14:35:42;42.80;59.90
1568;DHT22;777;47.156;8.326;2022-09-12T14:38:21;41.70;62.40
1568;DHT22;777;47.156;8.326;2022-09-12T14:40:51;40.00;64.10
1568;DHT22;777;47.156;8.326;2022-09-12T14:43:24;38.30;67.10
1568;DHT22;777;47.156;8.326;2022-09-12T14:45:55;39.80;66.50
1568;DHT22;777;47.156;8.326;2022-09-12T14:48:24;42.00;63.00
1568;DHT22;777;47.156;8.326;2022-09-12T14:50:52;41.50;62.80
1568;DHT22;777;47.156;8.326;2022-09-12T14:53:23;41.80;61.80
1568;DHT22;777;47.156;8.326;2022-09-12T14:55:52;43.40;61.30
1568;DHT22;777;47.156;8.326;2022-09-12T14:58:25;44.90;59.60
1568;DHT22;777;47.156;8.326;2022-09-12T15:00:57;45.30;57.90
1568;DHT22;777;47.156;8.326;2022-09-12T15:03:30;41.10;60.20
1568;DHT22;777;47.156;8.326;2022-09-12T15:05:58;40.70;61.10
1568;DHT22;777;47.156;8.326;2022-09-12T15:08:25;41.10;61.80
1568;DHT22;777;47.156;8.326;2022-09-12T15:10:53;41.40;62.00
1568;DHT22;777;47.156;8.326;2022-09-12T15:13:22;39.30;60.60
1568;DHT22;777;47.156;8.326;2022-09-12T15:15:52;37.60;63.30
1568;DHT22;777;47.156;8.326;2022-09-12T15:18:22;34.80;71.60
1568;DHT22;777;47.156;8.326;2022-09-12T15:20:51;34.30;74.40
1568;DHT22;777;47.156;8.326;2022-09-12T15:23:25;34.70;74.30
1568;DHT22;777;47.156;8.326;2022-09-12T15:25:54;34.00;73.80
1568;DHT22;777;47.156;8.326;2022-09-12T15:28:22;33.20;75.50
1568;DHT22;777;47.156;8.326;2022-09-12T15:30:51;32.60;78.40
1568;DHT22;777;47.156;8.326;2022-09-12T15:33:21;32.50;78.80
1568;DHT22;777;47.156;8.326;2022-09-12T15:35:50;31.60;79.90
1568;DHT22;777;47.156;8.326;2022-09-12T15:38:18;31.20;80.30
1568;DHT22;777;47.156;8.326;2022-09-12T15:40:48;31.10;82.10
1568;DHT22;777;47.156;8.326;2022-09-12T15:43:18;31.10;81.10
1568;DHT22;777;47.156;8.326;2022-09-12T15:45:47;30.80;81.50
1568;DHT22;777;47.156;8.326;2022-09-12T15:48:16;30.60;82.70
1568;DHT22;777;47.156;8.326;2022-09-12T15:50:44;31.40;82.70
1568;DHT22;777;47.156;8.326;2022-09-12T15:53:13;32.50;80.40
1568;DHT22;777;47.156;8.326;2022-09-12T15:55:41;33.10;78.70
1568;DHT22;777;47.156;8.326;2022-09-12T15:58:08;33.10;78.20
1568;DHT22;777;47.156;8.326;2022-09-12T16:00:35;33.00;79.10
1568;DHT22;777;47.156;8.326;2022-09-12T16:03:03;32.40;78.90
1568;DHT22;777;47.156;8.326;2022-09-12T16:05:30;31.20;81.50
1568;DHT22;777;47.156;8.326;2022-09-12T16:07:59;31.20;83.40
1568;DHT22;777;47.156;8.326;2022-09-12T16:10:28;31.60;81.90
1568;DHT22;777;47.156;8.326;2022-09-12T16:12:56;31.50;82.50
1568;DHT22;777;47.156;8.326;2022-09-12T16:15:24;31.50;82.10
1568;DHT22;777;47.156;8.326;2022-09-12T16:17:52;32.00;81.70
1568;DHT22;777;47.156;8.326;2022-09-12T16:20:20;32.00;80.20
1568;DHT22;777;47.156;8.326;2022-09-12T16:22:47;31.00;83.30
1568;DHT22;777;47.156;8.326;2022-09-12T16:25:16;31.10;84.20
1568;DHT22;777;47.156;8.326;2022-09-12T16:27:44;31.50;84.00
1568;DHT22;777;47.156;8.326;2022-09-12T16:30:11;32.60;81.30
1568;DHT22;777;47.156;8.326;2022-09-12T16:32:39;32.30;81.50
1568;DHT22;777;47.156;8.326;2022-09-12T16:35:07;32.90;79.90
1568;DHT22;777;47.156;8.326;2022-09-12T16:37:34;32.80;79.80
1568;DHT22;777;47.156;8.326;2022-09-12T16:40:02;32.40;79.70
1568;DHT22;777;47.156;8.326;2022-09-12T16:42:31;32.00;80.90
1568;DHT22;777;47.156;8.326;2022-09-12T16:45:00;31.40;81.80
1568;DHT22;777;47.156;8.326;2022-09-12T16:47:27;30.80;83.40
1568;DHT22;777;47.156;8.326;2022-09-12T16:49:56;30.80;83.60
1568;DHT22;777;47.156;8.326;2022-09-12T16:52:24;30.50;84.30
1568;DHT22;777;47.156;8.326;2022-09-12T16:54:51;30.50;84.70
1568;DHT22;777;47.156;8.326;2022-09-12T16:57:18;30.20;86.00
1568;DHT22;777;47.156;8.326;2022-09-12T16:59:46;29.70;87.00
1568;DHT22;777;47.156;8.326;2022-09-12T17:02:14;29.00;89.40
1568;DHT22;777;47.156;8.326;2022-09-12T17:04:41;27.80;91.10
1568;DHT22;777;47.156;8.326;2022-09-12T17:07:08;26.70;93.00
1568;DHT22;777;47.156;8.326;2022-09-12T17:09:35;26.70;94.40
1568;DHT22;777;47.156;8.326;2022-09-12T17:12:03;27.10;94.10